sensor_id;sensor_type;location;lat;lon;timestamp;pressure;altitude;pressure_sealevel;temperature;humidity
27643;BME280;15053;48.618;10.024;2023-02-13T00:02:25;96066.78;;;3.61;100.00
27643;BME280;15053;48.618;10.024;2023-02-13T00:04:52;96065.97;;;3.61;100.00
27643;BME280;15053;48.618;10.024;2023-02-13T00:07:18;96059.25;;;3.60;100.00
27643;BME280;15053;48.618;10.024;2023-02-13T00:09:45;96063.22;;;3.62;100.00
27643;BME280;15053;48.618;10.024;2023-02-13T00:12:11;96056.28;;;3.56;100.00
27643;BME280;15053;48.618;10.024;2023-02-13T00:14:38;96060.25;;;3.58;100.00
27643;BME280;15053;48.618;10.024;2023-02-13T00:17:05;96057.09;;;3.56;100.00
27643;BME280;15053;48.618;10.024;2023-02-13T00:19:32;96051.53;;;3.53;100.00
27643;BME280;15053;48.618;10.024;2023-02-13T00:21:58;96062.41;;;3.55;100.00
27643;BME280;15053;48.618;10.024;2023-02-13T00:24:25;96052.31;;;3.53;100.00
27643;BME280;15053;48.618;10.024;2023-02-13T00:26:51;96059.03;;;3.54;100.00
27643;BME280;15053;48.618;10.024;2023-02-13T00:29:18;96044.41;;;3.48;100.00
27643;BME280;15053;48.618;10.024;2023-02-13T00:31:44;96053.72;;;3.56;100.00
27643;BME280;15053;48.618;10.024;2023-02-13T00:34:12;96056.06;;;3.57;100.00
27643;BME280;15053;48.618;10.024;2023-02-13T00:36:39;96047.75;;;3.55;100.00
27643;BME280;15053;48.618;10.024;2023-02-13T00:39:05;96054.50;;;3.56;100.00
27643;BME280;15053;48.618;10.024;2023-02-13T00:41:32;96047.75;;;3.55;100.00
27643;BME280;15053;48.618;10.024;2023-02-13T00:43:58;96055.31;;;3.57;100.00
27643;BME280;15053;48.618;10.024;2023-02-13T00:46:25;96051.13;;;3.56;100.00
27643;BME280;15053;48.618;10.024;2023-02-13T00:48:52;96047.75;;;3.55;100.00
27643;BME280;15053;48.618;10.024;2023-02-13T00:51:18;96043.81;;;3.53;100.00
27643;BME280;15053;48.618;10.024;2023-02-13T00:53:45;96037.44;;;3.49;100.00
27643;BME280;15053;48.618;10.024;2023-02-13T00:56:13;96033.50;;;3.46;100.00
27643;BME280;15053;48.618;10.024;2023-02-13T00:58:43;96037.66;;;3.47;100.00
27643;BME280;15053;48.618;10.024;2023-02-13T01:01:10;96044.00;;;3.45;100.00
27643;BME280;15053;48.618;10.024;2023-02-13T01:03:36;96042.41;;;3.44;100.00
27643;BME280;15053;48.618;10.024;2023-02-13T01:06:03;96042.78;;;3.41;100.00
27643;BME280;15053;48.618;10.024;2023-02-13T01:08:32;96039.25;;;3.42;100.00
27643;BME280;15053;48.618;10.024;2023-02-13T01:10:58;96039.44;;;3.40;100.00
27643;BME280;15053;48.618;10.024;2023-02-13T01:13:25;96035.06;;;3.41;100.00
27643;BME280;15053;48.618;10.024;2023-02-13T01:15:54;96037.84;;;3.39;100.00
27643;BME280;15053;48.618;10.024;2023-02-13T01:18:20;96043.81;;;3.40;100.00
27643;BME280;15053;48.618;10.024;2023-02-13T01:21:01;96040.63;;;3.38;100.00
27643;BME280;15053;48.618;10.024;2023-02-13T01:23:31;96036.06;;;3.33;100.00
27643;BME280;15053;48.618;10.024;2023-02-13T01:25:58;96034.50;;;3.32;100.00
27643;BME280;15053;48.618;10.024;2023-02-13T01:28:25;96042.81;;;3.34;100.00
27643;BME280;15053;48.618;10.024;2023-02-13T01:30:53;96027.16;;;3.29;100.00
27643;BME280;15053;48.618;10.024;2023-02-13T01:33:25;96031.94;;;3.32;100.00
27643;BME280;15053;48.618;10.024;2023-02-13T01:35:52;96026.56;;;3.27;100.00
27643;BME280;15053;48.618;10.024;2023-02-13T01:38:19;96039.03;;;3.30;100.00
27643;BME280;15053;48.618;10.024;2023-02-13T01:40:52;96030.72;;;3.28;100.00
27643;BME280;15053;48.618;10.024;2023-02-13T01:43:19;96026.94;;;3.24;100.00
27643;BME280;15053;48.618;10.024;2023-02-13T01:45:52;96024.78;;;3.21;100.00
27643;BME280;15053;48.618;10.024;2023-02-13T01:48:22;96019.44;;;3.23;100.00
27643;BME280;15053;48.618;10.024;2023-02-13T01:53:32;96026.16;;;3.17;100.00
27643;BME280;15053;48.618;10.024;2023-02-13T01:56:07;96014.28;;;3.10;100.00
27643;BME280;15053;48.618;10.024;2023-02-13T01:58:37;96020.22;;;3.10;100.00
27643;BME280;15053;48.618;10.024;2023-02-13T02:01:07;96028.34;;;3.07;100.00
27643;BME280;15053;48.618;10.024;2023-02-13T02:06:13;96021.97;;;3.03;100.00
27643;BME280;15053;48.618;10.024;2023-02-13T02:08:41;96026.91;;;2.98;100.00
27643;BME280;15053;48.618;10.024;2023-02-13T02:11:24;96039.41;;;3.01;100.00
27643;BME280;15053;48.618;10.024;2023-02-13T02:13:53;96021.19;;;2.96;100.00
27643;BME280;15053;48.618;10.024;2023-02-13T02:16:30;96032.28;;;2.96;100.00
27643;BME280;15053;48.618;10.024;2023-02-13T02:18:56;96024.16;;;2.93;100.00
27643;BME280;15053;48.618;10.024;2023-02-13T02:27:08;96023.56;;;2.91;100.00
27643;BME280;15053;48.618;10.024;2023-02-13T02:32:43;96012.44;;;2.84;100.00
27643;BME280;15053;48.618;10.024;2023-02-13T02:38:03;96010.44;;;2.73;100.00
27643;BME280;15053;48.618;10.024;2023-02-13T02:40:53;96010.22;;;2.68;100.00
27643;BME280;15053;48.618;10.024;2023-02-13T02:46:33;96012.38;;;2.58;100.00
27643;BME280;15053;48.618;10.024;2023-02-13T02:49:11;96007.81;;;2.53;100.00
27643;BME280;15053;48.618;10.024;2023-02-13T02:52:07;96006.22;;;2.46;100.00
27643;BME280;15053;48.618;10.024;2023-02-13T02:55:02;96010.16;;;2.42;100.00
27643;BME280;15053;48.618;10.024;2023-02-13T02:57:43;96008.34;;;2.35;100.00
27643;BME280;15053;48.618;10.024;2023-02-13T03:00:32;96010.09;;;2.28;100.00
27643;BME280;15053;48.618;10.024;2023-02-13T03:03:21;96015.81;;;2.24;100.00
27643;BME280;15053;48.618;10.024;2023-02-13T03:06:16;96013.22;;;2.17;100.00
27643;BME280;15053;48.618;10.024;2023-02-13T03:08:53;96015.75;;;2.11;100.00
27643;BME280;15053;48.618;10.024;2023-02-13T03:11:40;96023.66;;;2.09;100.00
27643;BME280;15053;48.618;10.024;2023-02-13T03:14:27;96024.81;;;2.07;100.00
27643;BME280;15053;48.618;10.024;2023-02-13T03:16:56;96018.06;;;1.99;99.93
27643;BME280;15053;48.618;10.024;2023-02-13T03:19:50;96027.97;;;2.02;100.00
27643;BME280;15053;48.618;10.024;2023-02-13T03:22:45;96025.19;;;1.97;100.00
27643;BME280;15053;48.618;10.024;2023-02-13T03:25:21;96023.16;;;1.93;100.00
27643;BME280;15053;48.618;10.024;2023-02-13T03:28:09;96036.56;;;1.88;99.69
27643;BME280;15053;48.618;10.024;2023-02-13T03:31:19;96041.66;;;1.82;100.00
27643;BME280;15053;48.618;10.024;2023-02-13T03:34:09;96036.53;;;1.82;100.00
27643;BME280;15053;48.618;10.024;2023-02-13T03:40:02;96045.41;;;1.79;99.93
27643;BME280;15053;48.618;10.024;2023-02-13T03:42:35;96055.50;;;1.81;100.00
27643;BME280;15053;48.618;10.024;2023-02-13T03:45:11;96046.03;;;1.81;100.00
27643;BME280;15053;48.618;10.024;2023-02-13T03:48:00;96049.78;;;1.85;100.00
27643;BME280;15053;48.618;10.024;2023-02-13T03:50:31;96048.19;;;1.84;100.00
27643;BME280;15053;48.618;10.024;2023-02-13T03:53:16;96048.63;;;1.88;100.00
27643;BME280;15053;48.618;10.024;2023-02-13T03:55:45;96050.22;;;1.89;100.00
27643;BME280;15053;48.618;10.024;2023-02-13T03:58:35;96056.31;;;1.88;100.00
27643;BME280;15053;48.618;10.024;2023-02-13T04:01:25;96061.03;;;1.84;100.00
27643;BME280;15053;48.618;10.024;2023-02-13T04:03:58;96052.44;;;1.70;100.00
27643;BME280;15053;48.618;10.024;2023-02-13T04:06:32;96047.16;;;1.72;100.00
27643;BME280;15053;48.618;10.024;2023-02-13T04:09:01;96054.63;;;1.67;100.00
27643;BME280;15053;48.618;10.024;2023-02-13T04:11:32;96059.13;;;1.65;100.00
27643;BME280;15053;48.618;10.024;2023-02-13T04:14:16;96065.44;;;1.62;100.00
27643;BME280;15053;48.618;10.024;2023-02-13T04:16:48;96058.09;;;1.59;100.00
27643;BME280;15053;48.618;10.024;2023-02-13T04:19:16;96049.41;;;1.54;99.82
27643;BME280;15053;48.618;10.024;2023-02-13T04:21:42;96060.25;;;1.56;100.00
27643;BME280;15053;48.618;10.024;2023-02-13T04:24:09;96067.53;;;1.52;100.00
27643;BME280;15053;48.618;10.024;2023-02-13T04:26:37;96065.94;;;1.51;100.00
27643;BME280;15053;48.618;10.024;2023-02-13T04:29:05;96061.56;;;1.45;100.00
27643;BME280;15053;48.618;10.024;2023-02-13T04:31:31;96074.44;;;1.52;99.91
27643;BME280;15053;48.618;10.024;2023-02-13T04:33:58;96066.56;;;1.53;99.51
27643;BME280;15053;48.618;10.024;2023-02-13T04:36:24;96066.38;;;1.55;99.63
27643;BME280;15053;48.618;10.024;2023-02-13T04:38:51;96066.22;;;1.63;100.00
27643;BME280;15053;48.618;10.024;2023-02-13T04:41:18;96061.31;;;1.68;100.00
27643;BME280;15053;48.618;10.024;2023-02-13T04:43:44;96064.16;;;1.73;100.00
27643;BME280;15053;48.618;10.024;2023-02-13T04:46:10;96061.38;;;1.74;100.00
27643;BME280;15053;48.618;10.024;2023-02-13T04:48:37;96060.63;;;1.81;100.00
27643;BME280;15053;48.618;10.024;2023-02-13T04:51:04;96065.56;;;1.82;100.00
27643;BME280;15053;48.618;10.024;2023-02-13T04:53:31;96063.00;;;1.82;100.00
27643;BME280;15053;48.618;10.024;2023-02-13T04:55:57;96057.88;;;1.82;99.50
27643;BME280;15053;48.618;10.024;2023-02-13T04:58:23;96067.53;;;1.80;99.10
27643;BME280;15053;48.618;10.024;2023-02-13T05:00:50;96064.38;;;1.78;99.35
27643;BME280;15053;48.618;10.024;2023-02-13T05:03:16;96067.69;;;1.72;99.16
27643;BME280;15053;48.618;10.024;2023-02-13T05:05:43;96063.66;;;1.63;98.50
27643;BME280;15053;48.618;10.024;2023-02-13T05:08:10;96065.56;;;1.54;98.35
27643;BME280;15053;48.618;10.024;2023-02-13T05:10:36;96072.22;;;1.49;97.85
27643;BME280;15053;48.618;10.024;2023-02-13T05:13:03;96068.84;;;1.42;97.57
27643;BME280;15053;48.618;10.024;2023-02-13T05:15:29;96061.50;;;1.39;97.40
27643;BME280;15053;48.618;10.024;2023-02-13T05:17:56;96060.69;;;1.38;97.64
27643;BME280;15053;48.618;10.024;2023-02-13T05:20:22;96059.91;;;1.38;98.10
27643;BME280;15053;48.618;10.024;2023-02-13T05:22:50;96059.50;;;1.34;97.76
27643;BME280;15053;48.618;10.024;2023-02-13T05:25:38;96065.41;;;1.35;98.45
27643;BME280;15053;48.618;10.024;2023-02-13T05:28:05;96057.16;;;1.39;98.39
27643;BME280;15053;48.618;10.024;2023-02-13T05:30:51;96064.66;;;1.41;98.78
27643;BME280;15053;48.618;10.024;2023-02-13T05:33:18;96071.41;;;1.42;98.93
27643;BME280;15053;48.618;10.024;2023-02-13T05:35:44;96074.56;;;1.44;98.06
27643;BME280;15053;48.618;10.024;2023-02-13T05:38:11;96072.59;;;1.46;98.25
27643;BME280;15053;48.618;10.024;2023-02-13T05:40:37;96073.22;;;1.48;98.94
27643;BME280;15053;48.618;10.024;2023-02-13T05:43:04;96079.75;;;1.50;98.39
27643;BME280;15053;48.618;10.024;2023-02-13T05:45:30;96071.88;;;1.52;97.84
27643;BME280;15053;48.618;10.024;2023-02-13T05:47:56;96072.22;;;1.49;97.60
27643;BME280;15053;48.618;10.024;2023-02-13T05:50:23;96069.44;;;1.44;97.43
27643;BME280;15053;48.618;10.024;2023-02-13T05:52:49;96072.78;;;1.44;98.13
27643;BME280;15053;48.618;10.024;2023-02-13T05:55:16;96068.63;;;1.43;98.11
27643;BME280;15053;48.618;10.024;2023-02-13T05:57:42;96073.59;;;1.45;97.73
27643;BME280;15053;48.618;10.024;2023-02-13T06:00:09;96071.63;;;1.47;98.16
27643;BME280;15053;48.618;10.024;2023-02-13T06:02:35;96067.72;;;1.51;97.34
27643;BME280;15053;48.618;10.024;2023-02-13T06:05:02;96073.41;;;1.46;97.82
27643;BME280;15053;48.618;10.024;2023-02-13T06:07:29;96072.22;;;1.49;97.43
27643;BME280;15053;48.618;10.024;2023-02-13T06:09:55;96061.59;;;1.52;97.18
27643;BME280;15053;48.618;10.024;2023-02-13T06:12:24;96075.06;;;1.54;96.88
27643;BME280;15053;48.618;10.024;2023-02-13T06:14:51;96068.34;;;1.53;97.27
27643;BME280;15053;48.618;10.024;2023-02-13T06:17:17;96074.63;;;1.50;97.25
27643;BME280;15053;48.618;10.024;2023-02-13T06:19:43;96071.84;;;1.45;97.48
27643;BME280;15053;48.618;10.024;2023-02-13T06:22:10;96073.22;;;1.48;97.49
27643;BME280;15053;48.618;10.024;2023-02-13T06:24:36;96068.91;;;1.48;96.77
27643;BME280;15053;48.618;10.024;2023-02-13T06:27:03;96068.69;;;1.50;96.76
27643;BME280;15053;48.618;10.024;2023-02-13T06:29:29;96064.16;;;1.52;97.18
27643;BME280;15053;48.618;10.024;2023-02-13T06:31:58;96078.97;;;1.50;96.64
27643;BME280;15053;48.618;10.024;2023-02-13T06:34:24;96080.56;;;1.51;97.30
27643;BME280;15053;48.618;10.024;2023-02-13T06:36:51;96076.59;;;1.48;96.15
27643;BME280;15053;48.618;10.024;2023-02-13T06:39:18;96078.50;;;1.40;95.61
27643;BME280;15053;48.618;10.024;2023-02-13T06:41:44;96075.66;;;1.35;96.47
27643;BME280;15053;48.618;10.024;2023-02-13T06:44:10;96070.13;;;1.31;95.52
27643;BME280;15053;48.618;10.024;2023-02-13T06:46:37;96069.94;;;1.33;96.29
27643;BME280;15053;48.618;10.024;2023-02-13T06:49:03;96075.28;;;1.38;96.66
27643;BME280;15053;48.618;10.024;2023-02-13T06:51:30;96076.91;;;1.39;96.92
27643;BME280;15053;48.618;10.024;2023-02-13T06:53:56;96081.66;;;1.42;96.84
27643;BME280;15053;48.618;10.024;2023-02-13T06:56:23;96086.44;;;1.45;96.60
27643;BME280;15053;48.618;10.024;2023-02-13T06:58:51;96069.44;;;1.44;96.41
27643;BME280;15053;48.618;10.024;2023-02-13T07:01:17;96085.34;;;1.54;96.46
27643;BME280;15053;48.618;10.024;2023-02-13T07:03:44;96080.19;;;1.54;96.73
27643;BME280;15053;48.618;10.024;2023-02-13T07:06:19;96086.31;;;1.53;96.86
27643;BME280;15053;48.618;10.024;2023-02-13T07:08:46;96085.69;;;1.51;95.73
27643;BME280;15053;48.618;10.024;2023-02-13T07:11:20;96090.84;;;1.51;96.79
27643;BME280;15053;48.618;10.024;2023-02-13T07:13:47;96091.94;;;1.42;95.89
27643;BME280;15053;48.618;10.024;2023-02-13T07:16:13;96097.50;;;1.45;96.38
27643;BME280;15053;48.618;10.024;2023-02-13T07:18:40;96094.72;;;1.47;96.19
27643;BME280;15053;48.618;10.024;2023-02-13T07:21:07;96098.16;;;1.54;96.78
27643;BME280;15053;48.618;10.024;2023-02-13T07:23:33;96103.53;;;1.59;97.05
27643;BME280;15053;48.618;10.024;2023-02-13T07:26:00;96098.81;;;1.62;96.17
27643;BME280;15053;48.618;10.024;2023-02-13T07:28:27;96105.34;;;1.65;96.76
27643;BME280;15053;48.618;10.024;2023-02-13T07:30:55;96111.84;;;1.61;96.40
27643;BME280;15053;48.618;10.024;2023-02-13T07:33:22;96108.47;;;1.60;95.62
27643;BME280;15053;48.618;10.024;2023-02-13T07:35:50;96108.31;;;1.62;96.57
27643;BME280;15053;48.618;10.024;2023-02-13T07:38:17;96108.47;;;1.60;96.23
27643;BME280;15053;48.618;10.024;2023-02-13T07:40:44;96108.47;;;1.60;96.76
27643;BME280;15053;48.618;10.024;2023-02-13T07:43:11;96108.72;;;1.65;96.47
27643;BME280;15053;48.618;10.024;2023-02-13T07:45:38;96109.06;;;1.62;95.94
27643;BME280;15053;48.618;10.024;2023-02-13T07:48:04;96113.00;;;1.58;95.97
27643;BME280;15053;48.618;10.024;2023-02-13T07:50:31;96116.91;;;1.54;95.32
27643;BME280;15053;48.618;10.024;2023-02-13T07:53:00;96106.59;;;1.48;95.62
27643;BME280;15053;48.618;10.024;2023-02-13T07:55:28;96112.69;;;1.47;95.81
27643;BME280;15053;48.618;10.024;2023-02-13T07:57:55;96111.38;;;1.51;96.26
27643;BME280;15053;48.618;10.024;2023-02-13T08:00:22;96124.97;;;1.51;96.39
27643;BME280;15053;48.618;10.024;2023-02-13T08:02:48;96119.59;;;1.46;95.77
27643;BME280;15053;48.618;10.024;2023-02-13T08:05:15;96122.81;;;1.48;96.05
27643;BME280;15053;48.618;10.024;2023-02-13T08:07:41;96117.59;;;1.42;96.06
27643;BME280;15053;48.618;10.024;2023-02-13T08:10:10;96114.31;;;1.48;95.97
27643;BME280;15053;48.618;10.024;2023-02-13T08:12:56;96120.41;;;1.47;96.32
27643;BME280;15053;48.618;10.024;2023-02-13T08:15:23;96114.47;;;1.46;96.90
27643;BME280;15053;48.618;10.024;2023-02-13T08:17:49;96113.50;;;1.47;96.81
27643;BME280;15053;48.618;10.024;2023-02-13T08:20:16;96117.66;;;1.48;97.05
27643;BME280;15053;48.618;10.024;2023-02-13T08:22:42;96115.13;;;1.55;97.22
27643;BME280;15053;48.618;10.024;2023-02-13T08:25:08;96123.06;;;1.60;97.00
27643;BME280;15053;48.618;10.024;2023-02-13T08:27:35;96123.50;;;1.63;96.97
27643;BME280;15053;48.618;10.024;2023-02-13T08:30:03;96124.31;;;1.64;97.10
27643;BME280;15053;48.618;10.024;2023-02-13T08:32:30;96116.78;;;1.62;96.40
27643;BME280;15053;48.618;10.024;2023-02-13T08:35:16;96123.75;;;1.68;96.75
27643;BME280;15053;48.618;10.024;2023-02-13T08:37:43;96126.38;;;1.75;97.51
27643;BME280;15053;48.618;10.024;2023-02-13T08:40:13;96124.19;;;1.72;97.23
27643;BME280;15053;48.618;10.024;2023-02-13T08:42:39;96118.44;;;1.70;97.39
27643;BME280;15053;48.618;10.024;2023-02-13T08:45:06;96119.78;;;1.66;96.62
27643;BME280;15053;48.618;10.024;2023-02-13T08:47:36;96120.16;;;1.63;96.54
27643;BME280;15053;48.618;10.024;2023-02-13T08:50:03;96119.72;;;1.59;96.71
27643;BME280;15053;48.618;10.024;2023-02-13T08:52:29;96113.81;;;1.59;96.51
27643;BME280;15053;48.618;10.024;2023-02-13T08:54:56;96119.72;;;1.59;97.32
27643;BME280;15053;48.618;10.024;2023-02-13T08:57:22;96116.41;;;1.65;97.46
27643;BME280;15053;48.618;10.024;2023-02-13T08:59:49;96111.47;;;1.64;97.08
27643;BME280;15053;48.618;10.024;2023-02-13T09:02:15;96120.22;;;1.69;97.14
27643;BME280;15053;48.618;10.024;2023-02-13T09:04:42;96119.84;;;1.72;96.50
27643;BME280;15053;48.618;10.024;2023-02-13T09:07:08;96115.09;;;1.76;97.01
27643;BME280;15053;48.618;10.024;2023-02-13T09:09:34;96120.50;;;1.81;97.77
27643;BME280;15053;48.618;10.024;2023-02-13T09:12:01;96123.91;;;1.88;97.71
27643;BME280;15053;48.618;10.024;2023-02-13T09:14:27;96125.38;;;1.97;97.96
27643;BME280;15053;48.618;10.024;2023-02-13T09:16:54;96121.44;;;2.01;97.38
27643;BME280;15053;48.618;10.024;2023-02-13T09:19:20;96132.56;;;2.08;97.86
27643;BME280;15053;48.618;10.024;2023-02-13T09:21:47;96125.03;;;2.07;97.12
27643;BME280;15053;48.618;10.024;2023-02-13T09:24:13;96125.22;;;2.05;97.52
27643;BME280;15053;48.618;10.024;2023-02-13T09:26:39;96127.59;;;2.07;97.18
27643;BME280;15053;48.618;10.024;2023-02-13T09:29:06;96128.59;;;2.06;96.59
27643;BME280;15053;48.618;10.024;2023-02-13T09:31:32;96125.97;;;1.99;96.64
27643;BME280;15053;48.618;10.024;2023-02-13T09:33:59;96134.63;;;1.98;97.02
27643;BME280;15053;48.618;10.024;2023-02-13T09:36:25;96134.28;;;2.01;97.16
27643;BME280;15053;48.618;10.024;2023-02-13T09:38:53;96133.09;;;2.04;97.17
27643;BME280;15053;48.618;10.024;2023-02-13T09:41:30;96134.75;;;2.11;97.50
27643;BME280;15053;48.618;10.024;2023-02-13T09:47:01;96138.19;;;2.25;97.17
27643;BME280;15053;48.618;10.024;2023-02-13T09:49:32;96135.66;;;2.31;96.77
27643;BME280;15053;48.618;10.024;2023-02-13T09:52:00;96138.06;;;2.33;96.75
27643;BME280;15053;48.618;10.024;2023-02-13T09:54:27;96124.56;;;2.31;96.90
27643;BME280;15053;48.618;10.024;2023-02-13T10:02:22;96130.28;;;2.26;97.30
27643;BME280;15053;48.618;10.024;2023-02-13T10:07:38;96132.34;;;2.37;96.66
27643;BME280;15053;48.618;10.024;2023-02-13T10:19:15;96130.69;;;2.58;96.82
27643;BME280;15053;48.618;10.024;2023-02-13T10:21:52;96128.06;;;2.51;96.40
27643;BME280;15053;48.618;10.024;2023-02-13T10:24:39;96124.31;;;2.47;96.14
27643;BME280;15053;48.618;10.024;2023-02-13T10:27:19;96129.44;;;2.47;96.76
27643;BME280;15053;48.618;10.024;2023-02-13T10:29:53;96124.31;;;2.47;96.51
27643;BME280;15053;48.618;10.024;2023-02-13T10:33:03;96130.28;;;2.61;96.72
27643;BME280;15053;48.618;10.024;2023-02-13T10:38:43;96132.22;;;2.52;95.97
27643;BME280;15053;48.618;10.024;2023-02-13T10:41:24;96131.38;;;2.45;95.66
27643;BME280;15053;48.618;10.024;2023-02-13T10:47:02;96132.13;;;2.39;96.51
27643;BME280;15053;48.618;10.024;2023-02-13T10:49:41;96121.69;;;2.41;95.89
27643;BME280;15053;48.618;10.024;2023-02-13T10:52:43;96118.13;;;2.42;95.97
27643;BME280;15053;48.618;10.024;2023-02-13T10:58:12;96114.34;;;2.37;96.30
27643;BME280;15053;48.618;10.024;2023-02-13T11:03:24;96112.53;;;2.31;96.33
27643;BME280;15053;48.618;10.024;2023-02-13T11:05:52;96116.88;;;2.31;96.33
27643;BME280;15053;48.618;10.024;2023-02-13T11:10:52;96114.28;;;2.24;96.18
27643;BME280;15053;48.618;10.024;2023-02-13T11:13:22;96109.13;;;2.24;96.40
27643;BME280;15053;48.618;10.024;2023-02-13T11:18:27;96112.75;;;2.36;96.53
27643;BME280;15053;48.618;10.024;2023-02-13T11:21:18;96103.69;;;2.41;97.16
27643;BME280;15053;48.618;10.024;2023-02-13T11:23:51;96091.81;;;2.39;97.04
27643;BME280;15053;48.618;10.024;2023-02-13T11:26:24;96101.72;;;2.43;96.57
27643;BME280;15053;48.618;10.024;2023-02-13T11:28:55;96107.84;;;2.42;97.05
27643;BME280;15053;48.618;10.024;2023-02-13T11:31:35;96109.25;;;2.44;97.07
27643;BME280;15053;48.618;10.024;2023-02-13T11:34:24;96101.28;;;2.39;96.64
27643;BME280;15053;48.618;10.024;2023-02-13T11:36:52;96106.47;;;2.46;96.69
27643;BME280;15053;48.618;10.024;2023-02-13T11:39:21;96105.94;;;2.57;96.88
27643;BME280;15053;48.618;10.024;2023-02-13T11:41:48;96100.03;;;2.69;97.69
27643;BME280;15053;48.618;10.024;2023-02-13T11:44:25;96095.16;;;2.81;97.29
27643;BME280;15053;48.618;10.024;2023-02-13T11:46:54;96096.38;;;2.85;97.02
27643;BME280;15053;48.618;10.024;2023-02-13T11:49:26;96100.13;;;2.89;97.21
27643;BME280;15053;48.618;10.024;2023-02-13T11:51:55;96093.41;;;2.94;97.16
27643;BME280;15053;48.618;10.024;2023-02-13T11:54:38;96089.88;;;3.02;97.51
27643;BME280;15053;48.618;10.024;2023-02-13T11:59:46;96099.56;;;3.00;96.88
27643;BME280;15053;48.618;10.024;2023-02-13T12:02:17;96102.13;;;2.93;96.33
27643;BME280;15053;48.618;10.024;2023-02-13T12:04:46;96101.34;;;2.93;96.51
27643;BME280;15053;48.618;10.024;2023-02-13T12:07:22;96103.06;;;2.86;96.08
27643;BME280;15053;48.618;10.024;2023-02-13T12:10:00;96099.91;;;2.84;96.36
27643;BME280;15053;48.618;10.024;2023-02-13T12:12:36;96097.16;;;2.85;96.29
27643;BME280;15053;48.618;10.024;2023-02-13T12:15:16;96092.19;;;2.84;95.91
27643;BME280;15053;48.618;10.024;2023-02-13T12:17:45;96093.19;;;2.83;96.22
27643;BME280;15053;48.618;10.024;2023-02-13T12:20:15;96087.84;;;2.84;96.30
27643;BME280;15053;48.618;10.024;2023-02-13T12:28:12;96075.44;;;3.01;95.95
27643;BME280;15053;48.618;10.024;2023-02-13T12:31:13;96065.53;;;2.98;96.25
27643;BME280;15053;48.618;10.024;2023-02-13T12:36:42;96079.41;;;3.17;96.37
27643;BME280;15053;48.618;10.024;2023-02-13T12:39:24;96073.84;;;3.13;96.12
27643;BME280;15053;48.618;10.024;2023-02-13T12:42:07;96067.53;;;3.09;96.10
27643;BME280;15053;48.618;10.024;2023-02-13T12:44:59;96073.06;;;3.06;95.50
27643;BME280;15053;48.618;10.024;2023-02-13T12:47:38;96067.50;;;3.03;95.47
27643;BME280;15053;48.618;10.024;2023-02-13T12:53:24;96080.53;;;2.88;95.70
27643;BME280;15053;48.618;10.024;2023-02-13T12:58:59;96080.34;;;2.83;95.33
27643;BME280;15053;48.618;10.024;2023-02-13T13:04:11;96077.13;;;2.74;95.71
27643;BME280;15053;48.618;10.024;2023-02-13T13:07:04;96080.09;;;2.71;95.75
27643;BME280;15053;48.618;10.024;2023-02-13T13:12:50;96075.53;;;2.73;96.20
27643;BME280;15053;48.618;10.024;2023-02-13T13:15:39;96071.78;;;2.76;96.60
27643;BME280;15053;48.618;10.024;2023-02-13T13:21:16;96068.63;;;2.74;96.20
27643;BME280;15053;48.618;10.024;2023-02-13T13:26:34;96070.97;;;2.69;96.76
27643;BME280;15053;48.618;10.024;2023-02-13T13:29:22;96072.16;;;2.73;97.03
27643;BME280;15053;48.618;10.024;2023-02-13T13:32:00;96068.25;;;2.77;96.64
27643;BME280;15053;48.618;10.024;2023-02-13T13:34:29;96067.44;;;2.76;96.32
27643;BME280;15053;48.618;10.024;2023-02-13T13:37:12;96072.97;;;2.73;96.96
27643;BME280;15053;48.618;10.024;2023-02-13T13:42:37;96078.53;;;2.83;97.01
27643;BME280;15053;48.618;10.024;2023-02-13T13:48:33;96071.03;;;2.88;96.70
27643;BME280;15053;48.618;10.024;2023-02-13T13:51:10;96067.47;;;2.89;96.97
27643;BME280;15053;48.618;10.024;2023-02-13T14:07:53;96067.03;;;2.73;96.58
27643;BME280;15053;48.618;10.024;2023-02-13T14:12:49;96068.81;;;2.72;96.70
27643;BME280;15053;48.618;10.024;2023-02-13T14:18:18;96066.63;;;2.76;96.81
27643;BME280;15053;48.618;10.024;2023-02-13T14:20:49;96064.28;;;2.74;96.51
27643;BME280;15053;48.618;10.024;2023-02-13T14:23:43;96065.47;;;2.72;96.64
27643;BME280;15053;48.618;10.024;2023-02-13T14:28:53;96059.53;;;2.78;96.80
27643;BME280;15053;48.618;10.024;2023-02-13T14:31:24;96055.75;;;2.74;96.95
27643;BME280;15053;48.618;10.024;2023-02-13T14:36:30;96059.69;;;2.70;97.02
27643;BME280;15053;48.618;10.024;2023-02-13T14:39:02;96061.66;;;2.68;96.73
27643;BME280;15053;48.618;10.024;2023-02-13T14:44:31;96061.63;;;2.61;96.93
27643;BME280;15053;48.618;10.024;2023-02-13T14:47:02;96059.06;;;2.55;97.18
27643;BME280;15053;48.618;10.024;2023-02-13T14:49:34;96052.31;;;2.54;97.22
27643;BME280;15053;48.618;10.024;2023-02-13T14:52:04;96052.53;;;2.52;96.99
27643;BME280;15053;48.618;10.024;2023-02-13T14:54:36;96053.31;;;2.53;97.29
27643;BME280;15053;48.618;10.024;2023-02-13T14:57:14;96061.22;;;2.51;97.65
27643;BME280;15053;48.618;10.024;2023-02-13T14:59:46;96059.41;;;2.45;97.15
27643;BME280;15053;48.618;10.024;2023-02-13T15:04:46;96049.09;;;2.38;97.75
27643;BME280;15053;48.618;10.024;2023-02-13T15:07:20;96054.25;;;2.38;97.55
27643;BME280;15053;48.618;10.024;2023-02-13T15:09:52;96050.09;;;2.37;97.66
27643;BME280;15053;48.618;10.024;2023-02-13T15:12:30;96057.00;;;2.37;97.63
27643;BME280;15053;48.618;10.024;2023-02-13T15:14:58;96054.41;;;2.37;98.00
27643;BME280;15053;48.618;10.024;2023-02-13T15:17:30;96056.19;;;2.36;97.98
27643;BME280;15053;48.618;10.024;2023-02-13T15:20:04;96051.84;;;2.37;97.81
27643;BME280;15053;48.618;10.024;2023-02-13T15:22:35;96054.63;;;2.35;98.59
27643;BME280;15053;48.618;10.024;2023-02-13T15:25:03;96053.78;;;2.28;97.87
27643;BME280;15053;48.618;10.024;2023-02-13T15:27:33;96050.19;;;2.23;98.11